Time;durP1;ratioP1;P1;durP2;ratioP2;P2;SDS_P1;SDS_P2;PMS_P1;PMS_P2;Temp;Humidity;BMP_temperature;BMP_pressure;BME280_temperature;BME280_humidity;BME280_pressure;Samples;Min_cycle;Max_cycle;Signal;HPM_P1;HPM_P2
2020/12/13 00:01:34;;;;;;;8.63;5.53;;;;;;;;;;5053374;28;20102;-64
2020/12/13 00:04:00;;;;;;;8.23;5.40;;;;;;;;;;5053401;28;20036;-64
2020/12/13 00:06:26;;;;;;;9.40;5.47;;;;;;;;;;5053071;28;20041;-64
2020/12/13 00:08:52;;;;;;;8.90;6.13;;;;;;;;;;5053052;28;20049;-64
2020/12/13 00:11:18;;;;;;;12.93;7.57;;;;;;;;;;5053229;28;20036;-64
2020/12/13 00:13:45;;;;;;;12.10;7.63;;;;;;;;;;5035145;28;20027;-64
2020/12/13 00:16:14;;;;;;;11.93;7.63;;;;;;;;;;5053426;28;20107;-64
2020/12/13 00:18:40;;;;;;;11.68;7.30;;;;;;;;;;5052867;28;20486;-64
2020/12/13 00:21:08;;;;;;;15.48;8.32;;;;;;;;;;5053055;28;20021;-64
2020/12/13 00:23:34;;;;;;;12.48;8.13;;;;;;;;;;5052829;28;20107;-64
2020/12/13 00:26:00;;;;;;;13.18;7.22;;;;;;;;;;5053241;28;20021;-64
2020/12/13 00:28:26;;;;;;;12.52;6.47;;;;;;;;;;5053305;28;20037;-64
2020/12/13 00:30:52;;;;;;;15.93;9.95;;;;;;;;;;5052929;28;20488;-64
2020/12/13 00:33:18;;;;;;;16.70;10.93;;;;;;;;;;5052873;28;20154;-64
2020/12/13 00:35:44;;;;;;;19.90;12.40;;;;;;;;;;5052855;28;20055;-64
2020/12/13 00:38:10;;;;;;;22.38;12.45;;;;;;;;;;5054762;28;20049;-64
2020/12/13 00:40:37;;;;;;;21.95;13.07;;;;;;;;;;5059813;28;20025;-64
2020/12/13 00:43:03;;;;;;;26.77;14.25;;;;;;;;;;5059372;28;20515;-64
2020/12/13 00:45:29;;;;;;;18.90;11.85;;;;;;;;;;5059434;28;20021;-64
2020/12/13 00:47:55;;;;;;;23.25;13.77;;;;;;;;;;5059572;28;20025;-64
2020/12/13 00:50:21;;;;;;;21.75;14.15;;;;;;;;;;5059555;28;20454;-64
2020/12/13 00:52:47;;;;;;;18.10;11.35;;;;;;;;;;5059239;28;20029;-64
2020/12/13 00:55:13;;;;;;;19.73;12.20;;;;;;;;;;5059389;28;20112;-64
2020/12/13 00:57:39;;;;;;;19.55;11.63;;;;;;;;;;5059198;28;20035;-64
2020/12/13 01:00:06;;;;;;;17.85;10.88;;;;;;;;;;5059569;28;20097;-64
2020/12/13 01:02:32;;;;;;;16.08;10.25;;;;;;;;;;5059392;28;20035;-64
2020/12/13 01:04:58;;;;;;;22.25;12.30;;;;;;;;;;5059720;28;20155;-64
2020/12/13 01:07:24;;;;;;;20.00;11.60;;;;;;;;;;5059079;28;20455;-64
2020/12/13 01:09:51;;;;;;;19.23;12.25;;;;;;;;;;5059328;28;20547;-64
2020/12/13 01:12:17;;;;;;;19.38;12.13;;;;;;;;;;5059581;28;20370;-64
2020/12/13 01:14:43;;;;;;;15.70;10.02;;;;;;;;;;5059205;28;20031;-64
2020/12/13 01:17:09;;;;;;;16.48;9.27;;;;;;;;;;5059099;28;20021;-64
2020/12/13 01:19:35;;;;;;;13.85;8.70;;;;;;;;;;5059170;28;20032;-64
2020/12/13 01:22:02;;;;;;;16.08;10.05;;;;;;;;;;5059118;28;20070;-64
2020/12/13 01:24:28;;;;;;;19.08;10.57;;;;;;;;;;5059326;28;20028;-64
2020/12/13 01:26:54;;;;;;;38.85;22.33;;;;;;;;;;5059174;28;20540;-64
2020/12/13 01:29:20;;;;;;;16.83;10.25;;;;;;;;;;5058972;28;20029;-64
2020/12/13 01:31:46;;;;;;;17.50;10.45;;;;;;;;;;5059091;28;20027;-64
2020/12/13 01:34:12;;;;;;;26.00;13.15;;;;;;;;;;5059058;28;20028;-64
2020/12/13 01:36:38;;;;;;;18.77;11.00;;;;;;;;;;5059360;28;20025;-65
2020/12/13 01:39:05;;;;;;;18.42;11.68;;;;;;;;;;5059045;28;20037;-64
2020/12/13 01:41:31;;;;;;;16.60;9.60;;;;;;;;;;5059091;28;20139;-65
2020/12/13 01:44:00;;;;;;;16.05;10.50;;;;;;;;;;5059212;28;20025;-64
2020/12/13 01:46:26;;;;;;;15.43;9.40;;;;;;;;;;5059184;28;20501;-65
2020/12/13 01:48:55;;;;;;;15.18;9.13;;;;;;;;;;5059058;28;20033;-64
2020/12/13 01:51:47;;;;;;;16.25;9.27;;;;;;;;;;5054709;28;20025;-65
2020/12/13 01:54:13;;;;;;;15.93;8.98;;;;;;;;;;5055363;28;20050;-65
2020/12/13 01:56:41;;;;;;;16.48;8.98;;;;;;;;;;5056023;28;20373;-64
2020/12/13 01:59:07;;;;;;;12.68;8.55;;;;;;;;;;5055443;28;20041;-64
2020/12/13 02:01:36;;;;;;;14.52;8.73;;;;;;;;;;5055874;28;20427;-64
2020/12/13 02:04:03;;;;;;;17.33;9.52;;;;;;;;;;5055437;28;20036;-64
2020/12/13 02:06:32;;;;;;;13.23;7.93;;;;;;;;;;5055421;28;20131;-64
2020/12/13 02:08:58;;;;;;;11.07;7.93;;;;;;;;;;5055705;28;20029;-64
2020/12/13 02:11:24;;;;;;;12.75;8.35;;;;;;;;;;5055328;28;20481;-64
2020/12/13 02:13:51;;;;;;;12.93;7.80;;;;;;;;;;5055257;28;20029;-65
2020/12/13 02:16:18;;;;;;;12.40;7.03;;;;;;;;;;5055686;28;20441;-64
2020/12/13 02:18:44;;;;;;;7.78;4.82;;;;;;;;;;5055186;28;20569;-64
2020/12/13 02:21:11;;;;;;;8.15;5.50;;;;;;;;;;5055481;28;20075;-64
2020/12/13 02:23:41;;;;;;;8.68;5.63;;;;;;;;;;5055008;28;20067;-64
2020/12/13 02:26:11;;;;;;;7.85;4.80;;;;;;;;;;5055170;28;20028;-64
2020/12/13 02:28:37;;;;;;;8.02;4.70;;;;;;;;;;5055418;28;20060;-64
2020/12/13 02:31:04;;;;;;;7.15;4.80;;;;;;;;;;5055042;28;20082;-64
2020/12/13 02:33:31;;;;;;;8.13;4.90;;;;;;;;;;5055243;28;20032;-64
2020/12/13 02:35:57;;;;;;;8.35;4.88;;;;;;;;;;5055234;28;20070;-65
2020/12/13 02:38:25;;;;;;;6.97;4.40;;;;;;;;;;5055160;28;20036;-65
2020/12/13 02:40:51;;;;;;;7.22;3.92;;;;;;;;;;5054981;28;20583;-64
2020/12/13 02:43:17;;;;;;;8.45;4.40;;;;;;;;;;5054815;28;20032;-64
2020/12/13 02:45:43;;;;;;;6.80;4.10;;;;;;;;;;5054618;28;20056;-64
2020/12/13 02:48:09;;;;;;;10.32;4.90;;;;;;;;;;5054691;28;20067;-64
2020/12/13 02:50:35;;;;;;;8.40;4.40;;;;;;;;;;5054907;28;20033;-64
2020/12/13 02:53:01;;;;;;;7.80;4.32;;;;;;;;;;5054782;28;20482;-64
2020/12/13 02:55:28;;;;;;;8.02;4.53;;;;;;;;;;5054694;28;20035;-64
2020/12/13 02:57:54;;;;;;;9.30;4.63;;;;;;;;;;5054449;28;20564;-64
2020/12/13 03:00:20;;;;;;;7.82;4.88;;;;;;;;;;5054412;28;20032;-65
2020/12/13 03:02:46;;;;;;;8.00;4.38;;;;;;;;;;5054381;28;20056;-64
2020/12/13 03:05:12;;;;;;;7.50;4.63;;;;;;;;;;5054454;28;20040;-63
2020/12/13 03:07:38;;;;;;;6.70;4.45;;;;;;;;;;5054746;28;20020;-65
2020/12/13 03:10:04;;;;;;;7.35;4.80;;;;;;;;;;5054202;28;20485;-65
2020/12/13 03:12:31;;;;;;;7.70;4.63;;;;;;;;;;5054547;28;20483;-65
2020/12/13 03:14:57;;;;;;;8.73;5.38;;;;;;;;;;5054133;28;20025;-65
2020/12/13 03:17:23;;;;;;;9.18;5.68;;;;;;;;;;5036100;28;20089;-64
2020/12/13 03:19:49;;;;;;;8.75;5.63;;;;;;;;;;5054939;28;20049;-64
2020/12/13 03:22:15;;;;;;;11.77;5.18;;;;;;;;;;5053930;28;20102;-64
2020/12/13 03:24:41;;;;;;;13.35;6.65;;;;;;;;;;5053830;28;20079;-64
2020/12/13 03:27:08;;;;;;;7.20;5.18;;;;;;;;;;5054316;28;20048;-64
2020/12/13 03:29:34;;;;;;;9.98;6.07;;;;;;;;;;5053868;28;20033;-65
2020/12/13 03:32:00;;;;;;;10.35;6.25;;;;;;;;;;5053880;28;20020;-65
2020/12/13 03:34:26;;;;;;;9.18;5.75;;;;;;;;;;5053881;28;20036;-65
2020/12/13 03:36:52;;;;;;;8.52;5.90;;;;;;;;;;5053649;28;20025;-65
2020/12/13 03:39:18;;;;;;;8.65;5.13;;;;;;;;;;5053997;28;20033;-65
2020/12/13 03:41:44;;;;;;;9.27;5.15;;;;;;;;;;5053727;28;20549;-64
2020/12/13 03:44:13;;;;;;;7.95;5.22;;;;;;;;;;5053907;28;20036;-64
2020/12/13 03:46:39;;;;;;;10.75;5.22;;;;;;;;;;5053415;28;20494;-65
2020/12/13 03:49:06;;;;;;;9.40;6.00;;;;;;;;;;5053453;28;20036;-65
2020/12/13 03:51:32;;;;;;;9.15;5.57;;;;;;;;;;5053565;28;20035;-65
2020/12/13 03:53:58;;;;;;;8.90;4.85;;;;;;;;;;5035675;28;20029;-65
2020/12/13 03:56:24;;;;;;;9.05;5.85;;;;;;;;;;5053394;28;20474;-64
2020/12/13 03:58:50;;;;;;;9.68;5.55;;;;;;;;;;5053303;28;20520;-65
2020/12/13 04:01:16;;;;;;;10.48;6.13;;;;;;;;;;5053303;28;20033;-64
2020/12/13 04:03:42;;;;;;;8.73;5.70;;;;;;;;;;5053434;28;20035;-64
2020/12/13 04:06:08;;;;;;;8.65;5.53;;;;;;;;;;5053249;28;20049;-64
2020/12/13 04:08:35;;;;;;;12.85;6.35;;;;;;;;;;5053243;28;20477;-64
2020/12/13 04:11:01;;;;;;;9.02;6.00;;;;;;;;;;5053117;28;20028;-64
2020/12/13 04:13:27;;;;;;;10.10;5.60;;;;;;;;;;5052891;28;20055;-64
2020/12/13 04:15:53;;;;;;;9.45;5.95;;;;;;;;;;5052989;28;20501;-65
2020/12/13 04:18:19;;;;;;;9.57;5.80;;;;;;;;;;5053009;28;20040;-65
2020/12/13 04:20:45;;;;;;;9.18;5.72;;;;;;;;;;5053141;28;20024;-65
2020/12/13 04:23:11;;;;;;;8.98;5.93;;;;;;;;;;5053027;28;20051;-65
2020/12/13 04:25:37;;;;;;;10.55;6.32;;;;;;;;;;5052898;28;20104;-65
2020/12/13 04:28:04;;;;;;;11.15;6.32;;;;;;;;;;5053126;28;20025;-65
2020/12/13 04:30:30;;;;;;;9.93;5.70;;;;;;;;;;5052902;28;20029;-64
2020/12/13 04:32:57;;;;;;;8.52;5.30;;;;;;;;;;5053026;28;20028;-66
2020/12/13 04:35:23;;;;;;;8.88;5.30;;;;;;;;;;5052941;28;20036;-65
2020/12/13 04:37:49;;;;;;;9.38;5.90;;;;;;;;;;5052792;28;20032;-66
2020/12/13 04:40:15;;;;;;;9.68;6.07;;;;;;;;;;5053235;28;20363;-65
2020/12/13 04:42:41;;;;;;;8.80;5.15;;;;;;;;;;5052925;28;20100;-65
2020/12/13 04:45:09;;;;;;;10.07;5.10;;;;;;;;;;5053345;28;20367;-66
2020/12/13 04:47:56;;;;;;;9.75;5.68;;;;;;;;;;5052758;28;20025;-66
2020/12/13 04:50:23;;;;;;;9.70;5.75;;;;;;;;;;5039107;28;20544;-66
2020/12/13 04:52:50;;;;;;;8.93;6.03;;;;;;;;;;5053007;28;20025;-66
2020/12/13 04:55:16;;;;;;;8.73;5.22;;;;;;;;;;5052684;28;20065;-65
2020/12/13 04:57:43;;;;;;;12.02;5.45;;;;;;;;;;5052850;28;20393;-66
2020/12/13 05:00:09;;;;;;;8.38;5.35;;;;;;;;;;5052676;28;20057;-65
2020/12/13 05:02:35;;;;;;;8.35;5.40;;;;;;;;;;5052921;28;20025;-65
2020/12/13 05:05:01;;;;;;;8.95;5.53;;;;;;;;;;5052769;28;20025;-65
2020/12/13 05:07:27;;;;;;;10.85;5.85;;;;;;;;;;5052382;28;20075;-65
2020/12/13 05:09:53;;;;;;;9.57;5.55;;;;;;;;;;5052988;28;20035;-65
2020/12/13 05:12:24;;;;;;;8.15;5.20;;;;;;;;;;5052466;28;20036;-65
2020/12/13 05:14:50;;;;;;;10.80;5.97;;;;;;;;;;5052860;28;20026;-65
2020/12/13 05:17:16;;;;;;;8.60;5.93;;;;;;;;;;5052507;28;20123;-65
2020/12/13 05:19:42;;;;;;;9.57;6.00;;;;;;;;;;5052779;28;20066;-65
2020/12/13 05:22:09;;;;;;;9.02;5.32;;;;;;;;;;5052357;28;20112;-65
2020/12/13 05:24:36;;;;;;;11.50;6.50;;;;;;;;;;5053849;28;20036;-65
2020/12/13 05:27:06;;;;;;;12.43;6.25;;;;;;;;;;5056262;28;20079;-65
2020/12/13 05:29:34;;;;;;;9.55;5.72;;;;;;;;;;5056435;28;20029;-65
2020/12/13 05:32:12;;;;;;;9.45;6.15;;;;;;;;;;5056341;28;20382;-65
2020/12/13 05:34:39;;;;;;;10.13;5.75;;;;;;;;;;5056316;28;20339;-65
2020/12/13 05:37:06;;;;;;;10.65;6.15;;;;;;;;;;5055890;28;20474;-65
2020/12/13 05:39:36;;;;;;;10.15;6.10;;;;;;;;;;5056309;28;20059;-65
2020/12/13 05:42:02;;;;;;;10.50;6.07;;;;;;;;;;5055916;28;20528;-66
2020/12/13 05:52:50;;;;;;;9.52;5.18;;;;;;;;;;5052589;28;20117;-65
2020/12/13 05:55:18;;;;;;;7.75;4.80;;;;;;;;;;5056113;28;20099;-65
2020/12/13 05:57:46;;;;;;;7.53;4.95;;;;;;;;;;5055797;28;20029;-66
2020/12/13 06:00:12;;;;;;;7.28;5.18;;;;;;;;;;5055598;28;20037;-65
2020/12/13 06:02:39;;;;;;;7.10;4.50;;;;;;;;;;5055525;28;20021;-65
2020/12/13 06:05:08;;;;;;;9.60;4.07;;;;;;;;;;5055833;28;20033;-66
2020/12/13 06:07:35;;;;;;;6.82;4.32;;;;;;;;;;5035462;28;20048;-65
2020/12/13 06:10:05;;;;;;;7.07;4.60;;;;;;;;;;5035549;28;20521;-65
2020/12/13 06:12:32;;;;;;;8.57;5.07;;;;;;;;;;5035362;28;20024;-65
2020/12/13 06:14:59;;;;;;;8.60;5.78;;;;;;;;;;5035540;28;20100;-65
2020/12/13 06:17:28;;;;;;;8.15;4.78;;;;;;;;;;5035087;28;20033;-65
2020/12/13 06:19:55;;;;;;;7.60;5.05;;;;;;;;;;5035789;28;20389;-65
2020/12/13 06:22:22;;;;;;;10.15;5.57;;;;;;;;;;5035119;28;20467;-65
2020/12/13 06:24:50;;;;;;;8.13;5.60;;;;;;;;;;5035235;28;20029;-65
2020/12/13 06:27:18;;;;;;;7.65;5.25;;;;;;;;;;5035077;28;20037;-65
2020/12/13 06:29:45;;;;;;;10.43;5.75;;;;;;;;;;5035109;28;20029;-65
2020/12/13 06:32:11;;;;;;;11.50;5.70;;;;;;;;;;5035015;28;20490;-64
2020/12/13 06:34:43;;;;;;;8.07;5.47;;;;;;;;;;5035099;28;20057;-65
2020/12/13 06:37:10;;;;;;;9.43;6.05;;;;;;;;;;5034359;28;20075;-65
2020/12/13 06:39:37;;;;;;;9.55;6.35;;;;;;;;;;5035197;28;20033;-66
2020/12/13 06:42:04;;;;;;;13.02;7.22;;;;;;;;;;5034900;28;20021;-65
2020/12/13 06:44:30;;;;;;;7.93;5.60;;;;;;;;;;5034935;28;20030;-65
2020/12/13 06:46:56;;;;;;;8.35;5.43;;;;;;;;;;5034770;28;20037;-65
2020/12/13 06:49:22;;;;;;;9.82;6.28;;;;;;;;;;5035065;28;20033;-65
2020/12/13 06:51:49;;;;;;;20.60;14.07;;;;;;;;;;5035185;28;20386;-65
2020/12/13 06:54:16;;;;;;;19.95;15.32;;;;;;;;;;5034706;28;20449;-65
2020/12/13 06:56:42;;;;;;;10.32;7.22;;;;;;;;;;5034675;28;20478;-65
2020/12/13 06:59:09;;;;;;;14.57;10.85;;;;;;;;;;5034182;28;20033;-65
2020/12/13 07:01:39;;;;;;;15.10;13.20;;;;;;;;;;5034691;28;20040;-65
2020/12/13 07:04:23;;;;;;;11.95;6.70;;;;;;;;;;5034419;28;20060;-65
2020/12/13 07:09:35;;;;;;;10.80;7.28;;;;;;;;;;5054618;28;20036;-65
2020/12/13 07:12:02;;;;;;;12.65;8.75;;;;;;;;;;5052216;28;20020;-65
2020/12/13 07:14:31;;;;;;;17.60;11.77;;;;;;;;;;5034604;28;20033;-64
2020/12/13 07:17:01;;;;;;;13.18;8.30;;;;;;;;;;5034561;28;20398;-66
2020/12/13 07:19:29;;;;;;;14.93;12.00;;;;;;;;;;5045038;28;20489;-65
2020/12/13 07:22:00;;;;;;;17.02;12.75;;;;;;;;;;5054274;28;20100;-65
2020/12/13 07:24:26;;;;;;;13.52;8.52;;;;;;;;;;5054058;28;20029;-65
2020/12/13 07:26:54;;;;;;;9.30;6.25;;;;;;;;;;5054082;28;20458;-64
2020/12/13 07:29:20;;;;;;;11.93;6.85;;;;;;;;;;5054176;28;20151;-65
2020/12/13 07:31:46;;;;;;;14.57;7.35;;;;;;;;;;5054154;28;20102;-64
2020/12/13 07:34:13;;;;;;;11.20;7.28;;;;;;;;;;5035975;28;20032;-65
2020/12/13 07:36:40;;;;;;;12.40;7.57;;;;;;;;;;5053805;28;20029;-64
2020/12/13 07:39:07;;;;;;;12.48;7.65;;;;;;;;;;5051499;28;20056;-64
2020/12/13 07:41:33;;;;;;;14.18;8.20;;;;;;;;;;5040133;28;20033;-63
2020/12/13 07:44:01;;;;;;;11.52;6.88;;;;;;;;;;5039927;28;20033;-63
2020/12/13 07:46:28;;;;;;;11.07;7.70;;;;;;;;;;5041043;28;20025;-64
2020/12/13 07:49:08;;;;;;;10.80;7.32;;;;;;;;;;5040520;28;20025;-65
2020/12/13 07:51:35;;;;;;;11.63;7.95;;;;;;;;;;5033631;28;20462;-63
2020/12/13 07:54:12;;;;;;;11.65;7.05;;;;;;;;;;5046222;28;20029;-63
2020/12/13 07:56:38;;;;;;;22.20;13.25;;;;;;;;;;5053765;28;20488;-65
2020/12/13 07:59:10;;;;;;;25.67;15.27;;;;;;;;;;5043703;28;20033;-65
2020/12/13 08:01:37;;;;;;;17.63;12.25;;;;;;;;;;5033293;28;20029;-64
2020/12/13 08:04:03;;;;;;;14.27;9.15;;;;;;;;;;5032903;28;20145;-64
2020/12/13 08:06:29;;;;;;;15.90;8.85;;;;;;;;;;5044673;28;20124;-63
2020/12/13 08:08:56;;;;;;;13.80;8.65;;;;;;;;;;5053153;28;20025;-64
2020/12/13 08:11:22;;;;;;;14.27;8.63;;;;;;;;;;5060000;28;20021;-63
2020/12/13 08:13:55;;;;;;;14.02;8.57;;;;;;;;;;5047606;28;20032;-65
2020/12/13 08:16:25;;;;;;;12.85;8.18;;;;;;;;;;5056791;28;20029;-63
2020/12/13 08:18:52;;;;;;;11.73;7.88;;;;;;;;;;5052824;28;20036;-65
2020/12/13 08:21:22;;;;;;;10.45;7.20;;;;;;;;;;5052929;28;20021;-63
2020/12/13 08:23:50;;;;;;;9.25;6.55;;;;;;;;;;5052853;28;20045;-65
2020/12/13 08:26:16;;;;;;;11.60;6.65;;;;;;;;;;5053083;28;20470;-64
2020/12/13 08:28:45;;;;;;;11.00;7.18;;;;;;;;;;5053016;28;20021;-66
2020/12/13 08:31:13;;;;;;;11.07;7.03;;;;;;;;;;5053175;28;20032;-66
2020/12/13 08:33:39;;;;;;;11.20;6.72;;;;;;;;;;5052856;28;20076;-66
2020/12/13 08:36:18;;;;;;;8.40;5.55;;;;;;;;;;5053146;28;20021;-66
2020/12/13 08:38:45;;;;;;;11.55;6.30;;;;;;;;;;5052839;28;20478;-65
2020/12/13 08:41:12;;;;;;;11.25;7.13;;;;;;;;;;5052986;28;20053;-66
2020/12/13 08:43:39;;;;;;;19.77;7.78;;;;;;;;;;5052823;28;20508;-65
2020/12/13 08:46:05;;;;;;;16.00;8.57;;;;;;;;;;5052844;28;20021;-66
2020/12/13 08:48:31;;;;;;;10.93;6.10;;;;;;;;;;5052783;28;20470;-66
2020/12/13 08:51:04;;;;;;;8.70;5.47;;;;;;;;;;5052735;28;20382;-65
2020/12/13 08:53:31;;;;;;;8.20;5.40;;;;;;;;;;5052737;28;20032;-66
2020/12/13 08:56:03;;;;;;;8.82;4.82;;;;;;;;;;5052504;28;20107;-66
2020/12/13 08:58:29;;;;;;;10.07;5.93;;;;;;;;;;5052949;28;20120;-66
2020/12/13 09:01:07;;;;;;;8.68;5.03;;;;;;;;;;5056187;28;20024;-66
2020/12/13 09:03:33;;;;;;;7.88;5.20;;;;;;;;;;5056949;28;20531;-66
2020/12/13 09:05:59;;;;;;;9.02;5.20;;;;;;;;;;5056715;28;20051;-66
2020/12/13 09:08:26;;;;;;;15.90;4.95;;;;;;;;;;5056565;28;20469;-65
2020/12/13 09:10:53;;;;;;;17.48;4.45;;;;;;;;;;5058756;28;20449;-66
2020/12/13 09:13:19;;;;;;;10.75;4.47;;;;;;;;;;5056042;28;20029;-66
2020/12/13 09:15:45;;;;;;;11.15;5.78;;;;;;;;;;5055882;28;20021;-67
2020/12/13 09:18:12;;;;;;;9.40;4.40;;;;;;;;;;5056475;28;20039;-66
2020/12/13 09:20:38;;;;;;;7.47;4.07;;;;;;;;;;5056411;28;20037;-66
2020/12/13 09:23:05;;;;;;;7.43;4.70;;;;;;;;;;5055027;28;20395;-66
2020/12/13 09:25:44;;;;;;;8.38;5.13;;;;;;;;;;5056448;28;20377;-66
2020/12/13 09:28:10;;;;;;;14.07;4.72;;;;;;;;;;5056299;28;20082;-66
2020/12/13 09:30:37;;;;;;;9.40;4.85;;;;;;;;;;5056350;28;20048;-66
2020/12/13 09:33:04;;;;;;;9.73;4.63;;;;;;;;;;5056230;28;20021;-66
2020/12/13 09:35:33;;;;;;;12.38;5.28;;;;;;;;;;5056026;28;20062;-66
2020/12/13 09:37:59;;;;;;;9.13;4.50;;;;;;;;;;5056090;28;20131;-66
2020/12/13 09:40:26;;;;;;;13.95;4.75;;;;;;;;;;5056038;28;20029;-66
2020/12/13 09:42:53;;;;;;;7.45;4.00;;;;;;;;;;5056207;28;20436;-66
2020/12/13 09:45:19;;;;;;;9.48;4.57;;;;;;;;;;5056314;28;20100;-66
2020/12/13 09:47:45;;;;;;;17.20;7.05;;;;;;;;;;5056218;28;20108;-66
2020/12/13 09:50:12;;;;;;;9.45;5.00;;;;;;;;;;5055812;28;20167;-66
2020/12/13 09:52:38;;;;;;;11.57;6.15;;;;;;;;;;5055846;28;20036;-66
2020/12/13 09:55:05;;;;;;;13.55;5.68;;;;;;;;;;5055747;28;20040;-66
2020/12/13 09:57:31;;;;;;;11.52;4.88;;;;;;;;;;5055784;28;20037;-65
2020/12/13 09:59:57;;;;;;;12.45;5.20;;;;;;;;;;5056043;28;20163;-66
2020/12/13 10:02:23;;;;;;;9.98;4.45;;;;;;;;;;5056054;28;20063;-66
2020/12/13 10:04:49;;;;;;;13.70;4.78;;;;;;;;;;5055850;28;20025;-66
2020/12/13 10:09:44;;;;;;;10.00;4.32;;;;;;;;;;5055569;28;20025;-66
2020/12/13 10:12:11;;;;;;;11.55;4.32;;;;;;;;;;5054380;28;20385;-66
2020/12/13 10:14:37;;;;;;;6.63;4.30;;;;;;;;;;5055442;28;20553;-66
2020/12/13 10:17:03;;;;;;;8.35;4.32;;;;;;;;;;5055351;28;20432;-66
2020/12/13 10:19:30;;;;;;;6.85;4.63;;;;;;;;;;5055306;28;20037;-66
2020/12/13 10:21:56;;;;;;;12.98;4.55;;;;;;;;;;5055523;28;20363;-66
2020/12/13 10:24:22;;;;;;;8.07;4.68;;;;;;;;;;5055077;28;20029;-66
2020/12/13 10:26:48;;;;;;;7.95;4.22;;;;;;;;;;5055071;28;20020;-66
2020/12/13 10:29:14;;;;;;;10.50;4.40;;;;;;;;;;5055056;28;20025;-66
2020/12/13 10:31:41;;;;;;;9.30;4.32;;;;;;;;;;5055285;28;20358;-66
2020/12/13 10:34:09;;;;;;;7.60;4.70;;;;;;;;;;5055256;28;20070;-66
2020/12/13 10:36:36;;;;;;;10.48;3.95;;;;;;;;;;5053151;28;20490;-65
2020/12/13 10:39:04;;;;;;;9.05;4.57;;;;;;;;;;5054302;28;20520;-66
2020/12/13 10:41:31;;;;;;;10.45;4.70;;;;;;;;;;5052977;28;20036;-66
2020/12/13 10:43:57;;;;;;;14.90;5.60;;;;;;;;;;5052053;28;20496;-65
2020/12/13 10:46:23;;;;;;;8.75;4.75;;;;;;;;;;5053088;28;20032;-66
2020/12/13 10:48:50;;;;;;;11.52;5.40;;;;;;;;;;5053817;28;20043;-66
2020/12/13 10:51:16;;;;;;;16.25;4.72;;;;;;;;;;5054515;28;20446;-66
2020/12/13 10:53:43;;;;;;;10.32;3.55;;;;;;;;;;5054803;28;20053;-66
2020/12/13 10:56:09;;;;;;;6.90;3.50;;;;;;;;;;5054649;28;20108;-66
2020/12/13 10:58:35;;;;;;;10.88;3.65;;;;;;;;;;5054522;28;20025;-66
2020/12/13 11:01:01;;;;;;;7.72;3.67;;;;;;;;;;5053770;28;20031;-66
2020/12/13 11:03:28;;;;;;;7.10;3.38;;;;;;;;;;5053449;28;20378;-65
2020/12/13 11:05:54;;;;;;;6.53;3.50;;;;;;;;;;5049969;28;20061;-66
2020/12/13 11:08:23;;;;;;;8.07;4.03;;;;;;;;;;5053655;28;20029;-66
2020/12/13 11:10:50;;;;;;;6.57;3.58;;;;;;;;;;5052756;28;20545;-65
2020/12/13 11:13:17;;;;;;;7.93;3.83;;;;;;;;;;5054157;28;20466;-66
2020/12/13 11:15:43;;;;;;;11.80;3.78;;;;;;;;;;5054224;28;20139;-66
2020/12/13 11:18:09;;;;;;;12.23;3.75;;;;;;;;;;5054069;28;20116;-65
2020/12/13 11:20:36;;;;;;;9.68;4.93;;;;;;;;;;5054353;28;20417;-66
2020/12/13 11:23:02;;;;;;;9.15;3.95;;;;;;;;;;5053778;28;20029;-66
2020/12/13 11:25:28;;;;;;;4.65;2.90;;;;;;;;;;5054166;28;20021;-66
2020/12/13 11:27:54;;;;;;;9.40;3.00;;;;;;;;;;5054228;28;20391;-66
2020/12/13 11:30:20;;;;;;;5.38;3.13;;;;;;;;;;5053959;28;20025;-66
2020/12/13 11:32:47;;;;;;;6.47;2.92;;;;;;;;;;5054021;28;20493;-66
2020/12/13 11:35:16;;;;;;;7.72;2.92;;;;;;;;;;5053852;28;20021;-65
2020/12/13 11:37:42;;;;;;;11.45;4.80;;;;;;;;;;5053444;28;20025;-66
2020/12/13 11:40:08;;;;;;;5.28;3.05;;;;;;;;;;5054097;28;20047;-66
2020/12/13 11:42:35;;;;;;;4.20;2.80;;;;;;;;;;5053728;28;20478;-66
2020/12/13 11:45:01;;;;;;;4.75;2.90;;;;;;;;;;5053816;28;20029;-66
2020/12/13 11:47:27;;;;;;;4.15;2.85;;;;;;;;;;5053850;28;20373;-66
2020/12/13 11:49:53;;;;;;;9.82;2.58;;;;;;;;;;5053742;28;20028;-66
2020/12/13 11:52:19;;;;;;;17.00;3.40;;;;;;;;;;5053472;28;20496;-65
2020/12/13 11:54:45;;;;;;;6.40;3.30;;;;;;;;;;5053375;28;20032;-66
2020/12/13 11:57:12;;;;;;;12.27;3.30;;;;;;;;;;5053701;28;20048;-67
2020/12/13 11:59:38;;;;;;;9.98;3.65;;;;;;;;;;5052225;28;20174;-66
2020/12/13 12:02:05;;;;;;;5.90;3.10;;;;;;;;;;5053397;28;20299;-66
2020/12/13 12:04:31;;;;;;;6.25;2.88;;;;;;;;;;5053692;28;20111;-66
2020/12/13 12:06:57;;;;;;;11.65;3.80;;;;;;;;;;5053166;28;20051;-65
2020/12/13 12:09:23;;;;;;;8.88;3.72;;;;;;;;;;5053275;28;20024;-66
2020/12/13 12:11:49;;;;;;;11.57;5.35;;;;;;;;;;5053082;28;20369;-66
2020/12/13 12:14:16;;;;;;;11.65;4.07;;;;;;;;;;5051924;28;20440;-65
2020/12/13 12:16:43;;;;;;;5.32;3.10;;;;;;;;;;5053413;28;20021;-66
2020/12/13 12:19:10;;;;;;;10.10;3.15;;;;;;;;;;5052718;28;20029;-66
2020/12/13 12:21:37;;;;;;;8.23;2.70;;;;;;;;;;5053326;28;20045;-66
2020/12/13 12:24:04;;;;;;;5.45;3.30;;;;;;;;;;5053146;28;20103;-66
2020/12/13 12:26:31;;;;;;;5.80;3.35;;;;;;;;;;5053225;28;20053;-64
2020/12/13 12:28:59;;;;;;;8.32;3.72;;;;;;;;;;5053087;28;20025;-64
2020/12/13 12:31:25;;;;;;;5.90;3.80;;;;;;;;;;5052972;28;20029;-67
2020/12/13 12:33:51;;;;;;;7.45;3.13;;;;;;;;;;5052087;28;20052;-67
2020/12/13 12:36:22;;;;;;;3.15;2.35;;;;;;;;;;5052251;28;20035;-66
2020/12/13 12:38:48;;;;;;;6.72;3.55;;;;;;;;;;5052529;28;20044;-67
2020/12/13 12:41:15;;;;;;;12.05;3.38;;;;;;;;;;5052955;28;20027;-66
2020/12/13 12:43:42;;;;;;;8.65;3.13;;;;;;;;;;5053002;28;20025;-64
2020/12/13 12:46:12;;;;;;;5.18;2.95;;;;;;;;;;5052917;28;20056;-64
2020/12/13 12:48:52;;;;;;;5.85;2.92;;;;;;;;;;5052766;28;20040;-63
2020/12/13 12:51:20;;;;;;;6.07;3.50;;;;;;;;;;5034948;28;20021;-63
2020/12/13 12:53:49;;;;;;;8.38;4.30;;;;;;;;;;5052624;28;20090;-64
2020/12/13 12:56:20;;;;;;;4.93;3.10;;;;;;;;;;5052683;28;20079;-63
2020/12/13 13:01:18;;;;;;;8.13;3.28;;;;;;;;;;5052669;28;20130;-66
2020/12/13 13:03:47;;;;;;;5.35;2.60;;;;;;;;;;5052685;28;20120;-66
2020/12/13 13:08:47;;;;;;;5.72;3.55;;;;;;;;;;5052841;28;20036;-66
2020/12/13 13:11:22;;;;;;;5.00;3.28;;;;;;;;;;5052271;28;20381;-65
2020/12/13 13:13:50;;;;;;;4.00;2.33;;;;;;;;;;5052545;28;20033;-64
2020/12/13 13:16:18;;;;;;;10.00;2.92;;;;;;;;;;5052633;28;20029;-67
2020/12/13 13:18:45;;;;;;;4.53;3.08;;;;;;;;;;5052471;28;20061;-67
2020/12/13 13:21:12;;;;;;;6.82;2.72;;;;;;;;;;5052552;28;20041;-67
2020/12/13 13:23:39;;;;;;;6.28;2.80;;;;;;;;;;5052373;28;20029;-66
2020/12/13 13:26:08;;;;;;;9.70;3.03;;;;;;;;;;5052393;28;20039;-66
2020/12/13 13:28:34;;;;;;;13.07;3.47;;;;;;;;;;5052572;28;20059;-65
2020/12/13 13:31:01;;;;;;;8.90;3.00;;;;;;;;;;5052367;28;20386;-66
2020/12/13 13:33:27;;;;;;;10.82;3.78;;;;;;;;;;5052244;28;20086;-65
2020/12/13 13:35:54;;;;;;;7.25;3.58;;;;;;;;;;5052375;28;20064;-67
2020/12/13 13:38:20;;;;;;;14.30;6.05;;;;;;;;;;5052176;28;20048;-66
2020/12/13 13:40:46;;;;;;;9.82;3.97;;;;;;;;;;5052280;28;20025;-66
2020/12/13 13:43:12;;;;;;;7.90;3.85;;;;;;;;;;5052356;28;20033;-65
2020/12/13 13:51:28;;;;;;;9.98;4.72;;;;;;;;;;4994637;28;20029;-66
2020/12/13 13:53:54;;;;;;;7.18;4.13;;;;;;;;;;5031155;28;20072;-66
2020/12/13 13:56:24;;;;;;;5.95;3.42;;;;;;;;;;5054466;28;20491;-66
2020/12/13 13:58:51;;;;;;;6.25;3.70;;;;;;;;;;5050452;28;20051;-66
2020/12/13 14:01:17;;;;;;;8.50;3.60;;;;;;;;;;5055795;28;20150;-67
2020/12/13 14:03:43;;;;;;;9.30;3.65;;;;;;;;;;5055887;28;20110;-67
2020/12/13 14:06:14;;;;;;;10.82;4.78;;;;;;;;;;5055363;28;20367;-66
2020/12/13 14:08:41;;;;;;;12.68;4.40;;;;;;;;;;5055951;28;20029;-67
2020/12/13 14:11:08;;;;;;;10.70;4.15;;;;;;;;;;5055661;28;20461;-67
2020/12/13 14:13:34;;;;;;;12.20;3.58;;;;;;;;;;5055479;28;20034;-66
2020/12/13 14:16:01;;;;;;;10.30;3.67;;;;;;;;;;5055460;28;20021;-66
2020/12/13 14:18:27;;;;;;;5.22;3.35;;;;;;;;;;5055518;28;20458;-67
2020/12/13 14:20:54;;;;;;;10.65;3.65;;;;;;;;;;5055671;28;20449;-67
2020/12/13 14:23:20;;;;;;;5.80;3.13;;;;;;;;;;5055452;28;20029;-67
2020/12/13 14:25:46;;;;;;;10.98;4.10;;;;;;;;;;5055449;28;20032;-67
2020/12/13 14:28:13;;;;;;;10.32;5.35;;;;;;;;;;5054825;28;20082;-65
2020/12/13 14:30:39;;;;;;;12.35;4.80;;;;;;;;;;5054180;28;20477;-66
2020/12/13 14:33:05;;;;;;;12.35;5.00;;;;;;;;;;5053755;28;20029;-66
2020/12/13 14:35:31;;;;;;;8.10;4.75;;;;;;;;;;5053269;28;20025;-65
2020/12/13 14:37:57;;;;;;;10.38;4.53;;;;;;;;;;5054689;28;20123;-66
2020/12/13 14:40:23;;;;;;;21.85;6.30;;;;;;;;;;5055193;28;20114;-66
2020/12/13 14:42:49;;;;;;;18.70;6.00;;;;;;;;;;5055095;28;20032;-67
2020/12/13 14:45:16;;;;;;;13.35;5.22;;;;;;;;;;5055205;28;20027;-67
2020/12/13 14:47:43;;;;;;;11.30;4.63;;;;;;;;;;5054856;28;20033;-66
2020/12/13 14:50:09;;;;;;;10.75;5.28;;;;;;;;;;5054695;28;20049;-67
2020/12/13 14:52:35;;;;;;;12.20;4.35;;;;;;;;;;5054801;28;20110;-67
2020/12/13 14:55:01;;;;;;;12.55;5.32;;;;;;;;;;5054812;28;20105;-67
2020/12/13 14:57:27;;;;;;;9.30;4.90;;;;;;;;;;5054060;28;20042;-67
2020/12/13 14:59:53;;;;;;;15.02;4.38;;;;;;;;;;5054516;28;20033;-66